sensor_id;sensor_type;location;lat;lon;timestamp;pressure;altitude;pressure_sealevel;temperature;humidity
10462;BME280;5278;42.656;23.374;2022-07-21T00:01:40;94898.69;;;25.74;41.06
10462;BME280;5278;42.656;23.374;2022-07-21T00:04:07;94905.59;;;25.64;40.67
10462;BME280;5278;42.656;23.374;2022-07-21T00:06:35;94905.03;;;25.62;39.47
10462;BME280;5278;42.656;23.374;2022-07-21T00:09:03;94901.56;;;25.57;39.95
10462;BME280;5278;42.656;23.374;2022-07-21T00:11:30;94913.03;;;25.62;40.05
10462;BME280;5278;42.656;23.374;2022-07-21T00:13:57;94912.50;;;25.70;39.70
10462;BME280;5278;42.656;23.374;2022-07-21T00:16:24;94907.75;;;25.83;39.39
10462;BME280;5278;42.656;23.374;2022-07-21T00:18:51;94906.47;;;25.90;39.52
10462;BME280;5278;42.656;23.374;2022-07-21T00:21:17;94901.66;;;25.92;39.84
10462;BME280;5278;42.656;23.374;2022-07-21T00:23:44;94904.09;;;25.99;39.92
10462;BME280;5278;42.656;23.374;2022-07-21T00:26:13;94915.28;;;26.06;39.75
10462;BME280;5278;42.656;23.374;2022-07-21T00:28:40;94906.22;;;26.07;39.78
10462;BME280;5278;42.656;23.374;2022-07-21T00:31:07;94909.41;;;26.04;39.59
10462;BME280;5278;42.656;23.374;2022-07-21T00:33:34;94910.72;;;26.01;39.81
10462;BME280;5278;42.656;23.374;2022-07-21T00:36:00;94893.44;;;26.04;39.65
10462;BME280;5278;42.656;23.374;2022-07-21T00:38:27;94859.03;;;25.82;39.58
10462;BME280;5278;42.656;23.374;2022-07-21T00:40:54;94903.56;;;26.12;39.63
10462;BME280;5278;42.656;23.374;2022-07-21T00:43:23;94901.97;;;26.11;39.61
10462;BME280;5278;42.656;23.374;2022-07-21T00:45:52;94872.31;;;25.77;39.71
10462;BME280;5278;42.656;23.374;2022-07-21T00:48:20;94914.72;;;25.94;40.19
10462;BME280;5278;42.656;23.374;2022-07-21T00:50:46;94915.78;;;25.98;40.20
10462;BME280;5278;42.656;23.374;2022-07-21T00:53:13;94905.38;;;25.91;40.15
10462;BME280;5278;42.656;23.374;2022-07-21T00:55:42;94909.94;;;26.01;40.15
10462;BME280;5278;42.656;23.374;2022-07-21T00:58:09;94914.72;;;25.94;40.12
10462;BME280;5278;42.656;23.374;2022-07-21T01:00:39;94912.59;;;25.96;40.33
10462;BME280;5278;42.656;23.374;2022-07-21T01:03:06;94906.75;;;25.99;40.16
10462;BME280;5278;42.656;23.374;2022-07-21T01:05:33;94906.44;;;25.95;40.11
10462;BME280;5278;42.656;23.374;2022-07-21T01:08:00;94905.09;;;25.78;40.85
10462;BME280;5278;42.656;23.374;2022-07-21T01:10:30;94894.13;;;25.59;41.04
10462;BME280;5278;42.656;23.374;2022-07-21T01:12:59;94894.38;;;25.62;41.23
10462;BME280;5278;42.656;23.374;2022-07-21T01:15:26;94895.34;;;25.46;41.22
10462;BME280;5278;42.656;23.374;2022-07-21T01:17:54;94896.09;;;25.37;40.71
10462;BME280;5278;42.656;23.374;2022-07-21T01:20:22;94889.97;;;25.31;41.44
10462;BME280;5278;42.656;23.374;2022-07-21T01:22:53;94891.56;;;25.32;41.06
10462;BME280;5278;42.656;23.374;2022-07-21T01:25:22;94887.56;;;25.24;41.17
10462;BME280;5278;42.656;23.374;2022-07-21T01:27:49;94883.84;;;25.36;40.73
10462;BME280;5278;42.656;23.374;2022-07-21T01:30:18;94887.31;;;25.36;40.43
10462;BME280;5278;42.656;23.374;2022-07-21T01:32:46;94886.50;;;25.25;40.84
10462;BME280;5278;42.656;23.374;2022-07-21T01:35:14;94883.56;;;25.27;41.01
10462;BME280;5278;42.656;23.374;2022-07-21T01:37:43;94855.84;;;25.13;40.57
10462;BME280;5278;42.656;23.374;2022-07-21T01:40:12;94865.72;;;25.22;40.54
10462;BME280;5278;42.656;23.374;2022-07-21T01:42:57;94877.59;;;25.00;41.09
10462;BME280;5278;42.656;23.374;2022-07-21T01:45:24;94883.59;;;24.85;41.36
10462;BME280;5278;42.656;23.374;2022-07-21T01:47:51;94881.03;;;24.95;41.70
10462;BME280;5278;42.656;23.374;2022-07-21T01:50:18;94876.78;;;24.99;41.51
10462;BME280;5278;42.656;23.374;2022-07-21T01:52:48;94863.72;;;24.93;41.42
10462;BME280;5278;42.656;23.374;2022-07-21T01:55:16;94864.00;;;25.01;41.23
10462;BME280;5278;42.656;23.374;2022-07-21T01:57:43;94878.13;;;25.07;41.02
10462;BME280;5278;42.656;23.374;2022-07-21T02:00:10;94878.66;;;25.04;40.86
10462;BME280;5278;42.656;23.374;2022-07-21T02:02:37;94868.22;;;24.92;40.91
10462;BME280;5278;42.656;23.374;2022-07-21T02:05:04;94875.16;;;24.93;41.07
10462;BME280;5278;42.656;23.374;2022-07-21T02:07:31;94877.06;;;25.03;41.10
10462;BME280;5278;42.656;23.374;2022-07-21T02:09:58;94865.91;;;25.11;40.91
10462;BME280;5278;42.656;23.374;2022-07-21T02:12:27;94873.91;;;25.11;40.64
10462;BME280;5278;42.656;23.374;2022-07-21T02:14:54;94880.34;;;25.20;40.52
10462;BME280;5278;42.656;23.374;2022-07-21T02:17:20;94874.47;;;25.18;40.54
10462;BME280;5278;42.656;23.374;2022-07-21T02:19:47;94876.06;;;25.14;40.75
10462;BME280;5278;42.656;23.374;2022-07-21T02:22:14;94873.63;;;25.07;40.93
10462;BME280;5278;42.656;23.374;2022-07-21T02:24:41;94877.34;;;25.06;40.78
10462;BME280;5278;42.656;23.374;2022-07-21T02:27:08;94873.88;;;25.06;40.53
10462;BME280;5278;42.656;23.374;2022-07-21T02:29:36;94876.84;;;25.09;40.68
10462;BME280;5278;42.656;23.374;2022-07-21T02:32:04;94877.66;;;25.10;40.57
10462;BME280;5278;42.656;23.374;2022-07-21T02:34:31;94871.81;;;25.18;40.67
10462;BME280;5278;42.656;23.374;2022-07-21T02:36:58;94871.84;;;25.23;40.56
10462;BME280;5278;42.656;23.374;2022-07-21T02:39:25;94874.25;;;25.24;40.81
10462;BME280;5278;42.656;23.374;2022-07-21T02:41:52;94866.53;;;25.28;41.03
10462;BME280;5278;42.656;23.374;2022-07-21T02:44:19;94864.47;;;25.35;40.77
10462;BME280;5278;42.656;23.374;2022-07-21T02:46:49;94868.19;;;25.34;40.86
10462;BME280;5278;42.656;23.374;2022-07-21T02:49:16;94862.56;;;25.30;40.94
10462;BME280;5278;42.656;23.374;2022-07-21T02:51:43;94857.22;;;25.30;40.97
10462;BME280;5278;42.656;23.374;2022-07-21T02:54:10;94857.50;;;25.24;41.06
10462;BME280;5278;42.656;23.374;2022-07-21T02:56:37;94860.38;;;25.17;41.55
10462;BME280;5278;42.656;23.374;2022-07-21T02:59:04;94870.22;;;25.22;41.35
10462;BME280;5278;42.656;23.374;2022-07-21T03:01:31;94858.25;;;25.14;41.34
10462;BME280;5278;42.656;23.374;2022-07-21T03:03:59;94875.84;;;25.30;41.57
10462;BME280;5278;42.656;23.374;2022-07-21T03:06:26;94864.97;;;25.32;41.59
10462;BME280;5278;42.656;23.374;2022-07-21T03:08:52;94874.00;;;25.31;42.12
10462;BME280;5278;42.656;23.374;2022-07-21T03:11:19;94873.50;;;25.34;41.78
10462;BME280;5278;42.656;23.374;2022-07-21T03:13:46;94879.91;;;25.38;41.87
10462;BME280;5278;42.656;23.374;2022-07-21T03:16:14;94875.91;;;25.41;41.75
10462;BME280;5278;42.656;23.374;2022-07-21T03:18:40;94883.09;;;25.40;41.90
10462;BME280;5278;42.656;23.374;2022-07-21T03:21:09;94876.69;;;25.36;41.69
10462;BME280;5278;42.656;23.374;2022-07-21T03:23:36;94877.47;;;25.37;41.74
10462;BME280;5278;42.656;23.374;2022-07-21T03:26:03;94879.91;;;25.38;41.69
10462;BME280;5278;42.656;23.374;2022-07-21T03:28:30;94879.91;;;25.38;41.75
10462;BME280;5278;42.656;23.374;2022-07-21T03:30:57;94877.78;;;25.40;41.66
10462;BME280;5278;42.656;23.374;2022-07-21T03:33:24;94882.56;;;25.43;41.68
10462;BME280;5278;42.656;23.374;2022-07-21T03:35:51;94884.47;;;25.48;41.63
10462;BME280;5278;42.656;23.374;2022-07-21T03:38:19;94882.56;;;25.43;41.55
10462;BME280;5278;42.656;23.374;2022-07-21T03:40:46;94850.75;;;25.11;42.08
10462;BME280;5278;42.656;23.374;2022-07-21T03:43:13;94879.53;;;25.14;42.21
10462;BME280;5278;42.656;23.374;2022-07-21T03:45:41;94887.50;;;25.14;42.39
10462;BME280;5278;42.656;23.374;2022-07-21T03:48:08;94886.72;;;25.19;42.18
10462;BME280;5278;42.656;23.374;2022-07-21T03:50:37;94887.56;;;25.24;42.19
10462;BME280;5278;42.656;23.374;2022-07-21T03:53:04;94898.50;;;25.33;42.50
10462;BME280;5278;42.656;23.374;2022-07-21T03:55:34;94891.03;;;25.25;42.36
10462;BME280;5278;42.656;23.374;2022-07-21T03:58:03;94893.41;;;25.26;42.34
10462;BME280;5278;42.656;23.374;2022-07-21T04:00:32;94898.44;;;25.23;42.30
10462;BME280;5278;42.656;23.374;2022-07-21T04:03:00;94897.91;;;25.26;42.00
10462;BME280;5278;42.656;23.374;2022-07-21T04:05:28;94888.66;;;25.34;42.18
10462;BME280;5278;42.656;23.374;2022-07-21T04:07:55;94892.38;;;25.33;41.87
10462;BME280;5278;42.656;23.374;2022-07-21T04:10:25;94891.81;;;25.30;42.10
10462;BME280;5278;42.656;23.374;2022-07-21T04:12:54;94895.59;;;25.35;42.23
10462;BME280;5278;42.656;23.374;2022-07-21T04:15:22;94893.44;;;25.37;42.15
10462;BME280;5278;42.656;23.374;2022-07-21T04:17:49;94895.91;;;25.48;41.98
10462;BME280;5278;42.656;23.374;2022-07-21T04:20:17;94901.56;;;25.62;41.71
10462;BME280;5278;42.656;23.374;2022-07-21T04:22:45;94881.09;;;25.67;41.45
10462;BME280;5278;42.656;23.374;2022-07-21T04:25:13;94896.59;;;25.91;41.33
10462;BME280;5278;42.656;23.374;2022-07-21T04:27:40;94859.28;;;25.86;40.94
10462;BME280;5278;42.656;23.374;2022-07-21T04:30:11;94894.56;;;26.38;40.36
10462;BME280;5278;42.656;23.374;2022-07-21T04:32:40;94896.44;;;26.63;39.68
10462;BME280;5278;42.656;23.374;2022-07-21T04:35:07;94897.47;;;26.77;39.55
10462;BME280;5278;42.656;23.374;2022-07-21T04:37:35;94905.47;;;27.03;38.83
10462;BME280;5278;42.656;23.374;2022-07-21T04:40:04;94893.13;;;27.32;38.31
10462;BME280;5278;42.656;23.374;2022-07-21T04:42:32;94899.16;;;27.68;37.59
10462;BME280;5278;42.656;23.374;2022-07-21T04:44:59;94897.44;;;27.92;37.44
10462;BME280;5278;42.656;23.374;2022-07-21T04:47:27;94891.97;;;28.17;37.12
10462;BME280;5278;42.656;23.374;2022-07-21T04:49:55;94893.50;;;28.29;36.90
10462;BME280;5278;42.656;23.374;2022-07-21T04:52:21;94905.19;;;28.38;36.48
10462;BME280;5278;42.656;23.374;2022-07-21T04:54:49;94907.44;;;28.54;36.35
10462;BME280;5278;42.656;23.374;2022-07-21T04:57:16;94910.78;;;28.75;36.05
10462;BME280;5278;42.656;23.374;2022-07-21T04:59:42;94895.03;;;29.02;35.09
10462;BME280;5278;42.656;23.374;2022-07-21T05:02:09;94899.09;;;29.24;34.68
10462;BME280;5278;42.656;23.374;2022-07-21T05:04:38;94905.84;;;29.45;34.82
10462;BME280;5278;42.656;23.374;2022-07-21T05:07:05;94914.44;;;29.66;34.03
10462;BME280;5278;42.656;23.374;2022-07-21T05:09:31;94912.97;;;29.78;34.31
10462;BME280;5278;42.656;23.374;2022-07-21T05:11:59;94904.97;;;29.97;34.49
10462;BME280;5278;42.656;23.374;2022-07-21T05:14:26;94902.91;;;29.89;34.27
10462;BME280;5278;42.656;23.374;2022-07-21T05:16:53;94901.28;;;30.12;33.82
10462;BME280;5278;42.656;23.374;2022-07-21T05:19:20;94898.94;;;30.43;33.74
10462;BME280;5278;42.656;23.374;2022-07-21T05:21:48;94895.97;;;30.63;33.10
10462;BME280;5278;42.656;23.374;2022-07-21T05:24:14;94897.44;;;30.88;32.75
10462;BME280;5278;42.656;23.374;2022-07-21T05:26:41;94906.72;;;31.09;31.99
10462;BME280;5278;42.656;23.374;2022-07-21T05:29:10;94906.47;;;31.24;31.93
10462;BME280;5278;42.656;23.374;2022-07-21T05:31:37;94899.81;;;31.49;31.75
10462;BME280;5278;42.656;23.374;2022-07-21T05:34:04;94903.13;;;31.73;31.61
10462;BME280;5278;42.656;23.374;2022-07-21T05:36:34;94903.59;;;32.02;30.85
10462;BME280;5278;42.656;23.374;2022-07-21T05:39:04;94906.72;;;32.32;30.13
10462;BME280;5278;42.656;23.374;2022-07-21T05:41:31;94909.59;;;32.35;29.90
10462;BME280;5278;42.656;23.374;2022-07-21T05:43:58;94898.34;;;32.56;30.04
10462;BME280;5278;42.656;23.374;2022-07-21T05:46:25;94898.06;;;32.79;29.11
10462;BME280;5278;42.656;23.374;2022-07-21T05:48:53;94895.66;;;33.00;29.21
10462;BME280;5278;42.656;23.374;2022-07-21T05:51:20;94899.19;;;33.09;28.91
10462;BME280;5278;42.656;23.374;2022-07-21T05:53:49;94904.22;;;33.24;28.87
10462;BME280;5278;42.656;23.374;2022-07-21T05:56:17;94906.50;;;33.40;28.60
10462;BME280;5278;42.656;23.374;2022-07-21T05:58:47;94898.38;;;33.70;27.80
10462;BME280;5278;42.656;23.374;2022-07-21T06:01:14;94900.50;;;33.82;27.76
10462;BME280;5278;42.656;23.374;2022-07-21T06:03:44;94894.66;;;34.14;27.42
10462;BME280;5278;42.656;23.374;2022-07-21T06:06:12;94901.22;;;34.22;27.28
10462;BME280;5278;42.656;23.374;2022-07-21T06:08:42;94902.81;;;34.32;27.16
10462;BME280;5278;42.656;23.374;2022-07-21T06:11:10;94879.28;;;34.58;26.44
10462;BME280;5278;42.656;23.374;2022-07-21T06:13:39;94894.19;;;34.98;26.05
10462;BME280;5278;42.656;23.374;2022-07-21T06:16:07;94896.34;;;35.22;25.78
10462;BME280;5278;42.656;23.374;2022-07-21T06:18:34;94901.59;;;35.36;25.39
10462;BME280;5278;42.656;23.374;2022-07-21T06:21:01;94876.72;;;35.42;24.84
10462;BME280;5278;42.656;23.374;2022-07-21T06:23:28;94880.75;;;35.74;24.45
10462;BME280;5278;42.656;23.374;2022-07-21T06:25:55;94886.25;;;35.87;24.64
10462;BME280;5278;42.656;23.374;2022-07-21T06:28:22;94883.19;;;36.17;24.14
10462;BME280;5278;42.656;23.374;2022-07-21T06:30:51;94883.25;;;36.50;23.74
10462;BME280;5278;42.656;23.374;2022-07-21T06:33:18;94879.09;;;36.74;23.79
10462;BME280;5278;42.656;23.374;2022-07-21T06:35:45;94876.06;;;36.87;23.30
10462;BME280;5278;42.656;23.374;2022-07-21T06:38:12;94867.06;;;36.95;23.80
10462;BME280;5278;42.656;23.374;2022-07-21T06:40:39;94872.59;;;36.99;23.41
10462;BME280;5278;42.656;23.374;2022-07-21T06:43:06;94880.03;;;37.23;23.05
10462;BME280;5278;42.656;23.374;2022-07-21T06:45:33;94871.91;;;37.35;22.93
10462;BME280;5278;42.656;23.374;2022-07-21T06:48:03;94881.00;;;37.63;22.35
10462;BME280;5278;42.656;23.374;2022-07-21T06:50:30;94877.03;;;37.85;22.18
10462;BME280;5278;42.656;23.374;2022-07-21T06:52:57;94877.25;;;38.04;22.42
10462;BME280;5278;42.656;23.374;2022-07-21T06:55:24;94841.88;;;38.01;22.40
10462;BME280;5278;42.656;23.374;2022-07-21T06:57:52;94875.44;;;38.20;22.84
10462;BME280;5278;42.656;23.374;2022-07-21T07:00:20;94873.13;;;38.22;22.62
10462;BME280;5278;42.656;23.374;2022-07-21T07:02:47;94869.63;;;38.22;22.43
10462;BME280;5278;42.656;23.374;2022-07-21T07:05:15;94872.66;;;38.45;22.25
10462;BME280;5278;42.656;23.374;2022-07-21T07:07:42;94874.97;;;38.58;22.70
10462;BME280;5278;42.656;23.374;2022-07-21T07:10:10;94869.78;;;38.81;22.25
10462;BME280;5278;42.656;23.374;2022-07-21T07:12:37;94871.78;;;38.96;22.00
10462;BME280;5278;42.656;23.374;2022-07-21T07:15:06;94861.16;;;39.07;21.57
10462;BME280;5278;42.656;23.374;2022-07-21T07:17:33;94869.44;;;39.10;22.79
10462;BME280;5278;42.656;23.374;2022-07-21T07:19:59;94868.81;;;39.17;23.09
10462;BME280;5278;42.656;23.374;2022-07-21T07:22:28;94860.34;;;39.50;21.37
10462;BME280;5278;42.656;23.374;2022-07-21T07:24:55;94866.75;;;39.89;20.83
10462;BME280;5278;42.656;23.374;2022-07-21T07:27:21;94862.88;;;39.90;20.80
10462;BME280;5278;42.656;23.374;2022-07-21T07:29:48;94852.75;;;39.90;20.76
10462;BME280;5278;42.656;23.374;2022-07-21T07:32:15;94851.72;;;40.14;20.23
10462;BME280;5278;42.656;23.374;2022-07-21T07:34:42;94852.00;;;40.25;20.38
10462;BME280;5278;42.656;23.374;2022-07-21T07:37:09;94851.66;;;40.65;20.14
10462;BME280;5278;42.656;23.374;2022-07-21T07:39:38;94843.22;;;40.93;19.73
10462;BME280;5278;42.656;23.374;2022-07-21T07:42:06;94845.38;;;41.25;19.60
10462;BME280;5278;42.656;23.374;2022-07-21T07:44:34;94839.56;;;41.50;20.00
10462;BME280;5278;42.656;23.374;2022-07-21T07:47:01;94843.84;;;41.74;19.44
10462;BME280;5278;42.656;23.374;2022-07-21T07:49:28;94841.94;;;41.78;18.90
10462;BME280;5278;42.656;23.374;2022-07-21T07:51:55;94831.69;;;41.94;18.67
10462;BME280;5278;42.656;23.374;2022-07-21T07:54:22;94832.59;;;42.05;18.54
10462;BME280;5278;42.656;23.374;2022-07-21T07:56:50;94826.13;;;42.17;18.51
10462;BME280;5278;42.656;23.374;2022-07-21T07:59:17;94823.03;;;42.18;18.45
10462;BME280;5278;42.656;23.374;2022-07-21T08:01:45;94825.75;;;42.18;18.76
10462;BME280;5278;42.656;23.374;2022-07-21T08:04:12;94824.88;;;42.40;18.48
10462;BME280;5278;42.656;23.374;2022-07-21T08:06:40;94825.09;;;42.58;18.29
10462;BME280;5278;42.656;23.374;2022-07-21T08:09:07;94815.47;;;42.68;18.40
10462;BME280;5278;42.656;23.374;2022-07-21T08:11:34;94822.34;;;42.91;18.27
10462;BME280;5278;42.656;23.374;2022-07-21T08:14:02;94817.56;;;43.18;18.15
10462;BME280;5278;42.656;23.374;2022-07-21T08:16:29;94811.28;;;43.65;17.90
10462;BME280;5278;42.656;23.374;2022-07-21T08:18:56;94807.66;;;44.09;17.36
10462;BME280;5278;42.656;23.374;2022-07-21T08:21:25;94808.22;;;44.39;17.10
10462;BME280;5278;42.656;23.374;2022-07-21T08:23:56;94806.25;;;44.33;17.05
10462;BME280;5278;42.656;23.374;2022-07-21T08:26:23;94808.13;;;44.18;17.15
10462;BME280;5278;42.656;23.374;2022-07-21T08:28:51;94807.91;;;43.83;17.06
10462;BME280;5278;42.656;23.374;2022-07-21T08:31:20;94811.56;;;44.04;16.99
10462;BME280;5278;42.656;23.374;2022-07-21T08:33:48;94814.28;;;44.04;17.08
10462;BME280;5278;42.656;23.374;2022-07-21T08:36:15;94808.88;;;44.11;16.72
10462;BME280;5278;42.656;23.374;2022-07-21T08:38:43;94809.72;;;44.23;16.71
10462;BME280;5278;42.656;23.374;2022-07-21T08:41:11;94796.88;;;44.44;16.54
10462;BME280;5278;42.656;23.374;2022-07-21T08:43:39;94800.13;;;44.71;16.61
10462;BME280;5278;42.656;23.374;2022-07-21T08:46:07;94784.09;;;44.87;16.21
10462;BME280;5278;42.656;23.374;2022-07-21T08:48:37;94795.13;;;45.37;15.72
10462;BME280;5278;42.656;23.374;2022-07-21T08:51:04;94788.84;;;45.15;15.89
10462;BME280;5278;42.656;23.374;2022-07-21T08:53:31;94793.19;;;45.41;15.59
10462;BME280;5278;42.656;23.374;2022-07-21T08:55:58;94789.25;;;45.81;15.26
10462;BME280;5278;42.656;23.374;2022-07-21T08:58:26;94781.19;;;46.47;14.72
10462;BME280;5278;42.656;23.374;2022-07-21T09:00:53;94789.13;;;47.07;14.43
10462;BME280;5278;42.656;23.374;2022-07-21T09:03:23;94783.16;;;47.67;14.24
10462;BME280;5278;42.656;23.374;2022-07-21T09:06:07;94778.81;;;48.07;14.13
10462;BME280;5278;42.656;23.374;2022-07-21T09:08:38;94777.31;;;47.99;13.79
10462;BME280;5278;42.656;23.374;2022-07-21T09:11:10;94770.50;;;48.11;13.88
10462;BME280;5278;42.656;23.374;2022-07-21T09:13:38;94768.09;;;48.47;13.18
10462;BME280;5278;42.656;23.374;2022-07-21T09:16:06;94764.44;;;48.53;13.43
10462;BME280;5278;42.656;23.374;2022-07-21T09:18:46;94772.75;;;49.10;13.31
10462;BME280;5278;42.656;23.374;2022-07-21T09:21:17;94766.16;;;49.28;12.95
10462;BME280;5278;42.656;23.374;2022-07-21T09:23:45;94769.03;;;49.67;12.71
10462;BME280;5278;42.656;23.374;2022-07-21T09:26:12;94764.50;;;49.80;12.33
10462;BME280;5278;42.656;23.374;2022-07-21T09:28:40;94751.81;;;50.22;12.33
10462;BME280;5278;42.656;23.374;2022-07-21T09:31:09;94766.63;;;50.32;12.11
10462;BME280;5278;42.656;23.374;2022-07-21T09:33:41;94764.31;;;50.50;12.03
10462;BME280;5278;42.656;23.374;2022-07-21T09:36:10;94761.38;;;50.77;11.82
10462;BME280;5278;42.656;23.374;2022-07-21T09:38:41;94752.88;;;51.20;11.37
10462;BME280;5278;42.656;23.374;2022-07-21T09:41:11;94754.91;;;51.32;11.22
10462;BME280;5278;42.656;23.374;2022-07-21T09:43:41;94756.69;;;51.26;11.18
10462;BME280;5278;42.656;23.374;2022-07-21T09:46:12;94746.31;;;50.94;11.01
10462;BME280;5278;42.656;23.374;2022-07-21T09:48:42;94754.22;;;51.28;10.70
10462;BME280;5278;42.656;23.374;2022-07-21T09:51:33;94757.63;;;51.36;10.47
10462;BME280;5278;42.656;23.374;2022-07-21T09:54:03;94737.63;;;51.73;10.14
10462;BME280;5278;42.656;23.374;2022-07-21T09:56:34;94761.41;;;52.19;10.38
10462;BME280;5278;42.656;23.374;2022-07-21T09:59:03;94753.19;;;51.99;10.56
10462;BME280;5278;42.656;23.374;2022-07-21T10:01:30;94749.94;;;51.72;10.70
10462;BME280;5278;42.656;23.374;2022-07-21T10:03:58;94738.78;;;51.76;10.76
10462;BME280;5278;42.656;23.374;2022-07-21T10:06:30;94753.47;;;51.60;10.49
10462;BME280;5278;42.656;23.374;2022-07-21T10:08:58;94749.53;;;51.57;10.76
10462;BME280;5278;42.656;23.374;2022-07-21T10:11:27;94742.72;;;51.30;10.57
10462;BME280;5278;42.656;23.374;2022-07-21T10:13:54;94745.94;;;50.76;10.91
10462;BME280;5278;42.656;23.374;2022-07-21T10:16:22;94740.88;;;50.55;10.99
10462;BME280;5278;42.656;23.374;2022-07-21T10:18:55;94731.03;;;50.70;10.73
10462;BME280;5278;42.656;23.374;2022-07-21T10:21:31;94733.44;;;50.68;11.23
10462;BME280;5278;42.656;23.374;2022-07-21T10:24:01;94737.75;;;51.05;10.87
10462;BME280;5278;42.656;23.374;2022-07-21T10:26:31;94741.31;;;51.05;10.81
10462;BME280;5278;42.656;23.374;2022-07-21T10:28:58;94738.75;;;51.14;10.76
10462;BME280;5278;42.656;23.374;2022-07-21T10:31:26;94726.66;;;50.89;11.10
10462;BME280;5278;42.656;23.374;2022-07-21T10:34:00;94729.44;;;51.05;10.90
10462;BME280;5278;42.656;23.374;2022-07-21T10:36:41;94732.19;;;50.89;11.17
10462;BME280;5278;42.656;23.374;2022-07-21T10:39:24;94724.16;;;51.27;10.54
10462;BME280;5278;42.656;23.374;2022-07-21T10:41:55;94671.41;;;50.98;10.83
10462;BME280;5278;42.656;23.374;2022-07-21T10:44:45;94726.19;;;51.26;10.87
10462;BME280;5278;42.656;23.374;2022-07-21T10:47:15;94723.22;;;51.01;11.04
10462;BME280;5278;42.656;23.374;2022-07-21T10:49:50;94712.63;;;51.28;10.48
10462;BME280;5278;42.656;23.374;2022-07-21T10:52:56;94698.44;;;51.10;9.88
10462;BME280;5278;42.656;23.374;2022-07-21T10:55:25;94702.47;;;50.73;10.38
10462;BME280;5278;42.656;23.374;2022-07-21T10:58:16;94705.44;;;50.82;10.68
10462;BME280;5278;42.656;23.374;2022-07-21T11:00:46;94697.47;;;50.84;10.86
10462;BME280;5278;42.656;23.374;2022-07-21T11:03:17;94703.66;;;50.72;11.03
10462;BME280;5278;42.656;23.374;2022-07-21T11:06:14;94699.41;;;50.67;11.13
10462;BME280;5278;42.656;23.374;2022-07-21T11:08:42;94687.34;;;50.42;11.11
10462;BME280;5278;42.656;23.374;2022-07-21T11:11:12;94686.03;;;49.90;11.76
10462;BME280;5278;42.656;23.374;2022-07-21T11:14:15;94672.50;;;49.53;11.89
10462;BME280;5278;42.656;23.374;2022-07-21T11:17:07;94679.19;;;48.86;12.68
10462;BME280;5278;42.656;23.374;2022-07-21T11:19:37;94677.63;;;47.63;12.87
10462;BME280;5278;42.656;23.374;2022-07-21T11:22:08;94678.66;;;46.29;13.14
10462;BME280;5278;42.656;23.374;2022-07-21T11:24:37;94673.47;;;45.36;14.11
10462;BME280;5278;42.656;23.374;2022-07-21T11:27:08;94674.28;;;44.87;14.87
10462;BME280;5278;42.656;23.374;2022-07-21T11:29:38;94672.63;;;44.44;15.12
10462;BME280;5278;42.656;23.374;2022-07-21T11:32:07;94680.84;;;44.26;15.11
10462;BME280;5278;42.656;23.374;2022-07-21T11:34:40;94682.31;;;44.06;15.25
10462;BME280;5278;42.656;23.374;2022-07-21T11:37:07;94673.97;;;43.81;15.59
10462;BME280;5278;42.656;23.374;2022-07-21T11:39:35;94667.22;;;43.54;15.41
10462;BME280;5278;42.656;23.374;2022-07-21T11:42:04;94665.19;;;43.44;15.23
10462;BME280;5278;42.656;23.374;2022-07-21T11:44:31;94647.03;;;43.21;15.11
10462;BME280;5278;42.656;23.374;2022-07-21T11:47:03;94663.97;;;43.38;15.38
10462;BME280;5278;42.656;23.374;2022-07-21T11:49:30;94665.03;;;43.22;16.67
10462;BME280;5278;42.656;23.374;2022-07-21T11:52:02;94657.53;;;43.12;16.14
10462;BME280;5278;42.656;23.374;2022-07-21T11:54:31;94660.94;;;42.99;16.19
10462;BME280;5278;42.656;23.374;2022-07-21T11:57:00;94663.97;;;42.86;16.20
10462;BME280;5278;42.656;23.374;2022-07-21T11:59:28;94652.78;;;42.58;16.86
10462;BME280;5278;42.656;23.374;2022-07-21T12:01:58;94629.66;;;42.15;16.87
10462;BME280;5278;42.656;23.374;2022-07-21T12:04:41;94661.41;;;42.23;16.54
10462;BME280;5278;42.656;23.374;2022-07-21T12:07:17;94650.84;;;42.22;17.29
10462;BME280;5278;42.656;23.374;2022-07-21T12:09:48;94645.00;;;41.86;17.40
10462;BME280;5278;42.656;23.374;2022-07-21T12:12:27;94658.00;;;41.66;17.10
10462;BME280;5278;42.656;23.374;2022-07-21T12:14:56;94657.00;;;41.48;17.03
10462;BME280;5278;42.656;23.374;2022-07-21T12:17:34;94636.88;;;41.34;17.14
10462;BME280;5278;42.656;23.374;2022-07-21T12:20:04;94638.31;;;41.24;17.31
10462;BME280;5278;42.656;23.374;2022-07-21T12:22:35;94644.81;;;41.16;17.28
10462;BME280;5278;42.656;23.374;2022-07-21T12:25:04;94587.34;;;40.79;17.87
10462;BME280;5278;42.656;23.374;2022-07-21T12:27:34;94636.72;;;40.97;18.04
10462;BME280;5278;42.656;23.374;2022-07-21T12:30:03;94642.06;;;40.90;18.47
10462;BME280;5278;42.656;23.374;2022-07-21T12:32:47;94634.69;;;40.67;18.73
10462;BME280;5278;42.656;23.374;2022-07-21T12:35:22;94632.28;;;40.62;18.17
10462;BME280;5278;42.656;23.374;2022-07-21T12:37:58;94629.00;;;40.53;18.67
10462;BME280;5278;42.656;23.374;2022-07-21T12:40:26;94631.19;;;40.44;19.06
10462;BME280;5278;42.656;23.374;2022-07-21T12:43:10;94625.06;;;40.28;19.38
10462;BME280;5278;42.656;23.374;2022-07-21T12:45:52;94622.13;;;40.17;19.26
10462;BME280;5278;42.656;23.374;2022-07-21T12:48:22;94625.72;;;40.21;19.32
10462;BME280;5278;42.656;23.374;2022-07-21T12:51:06;94618.63;;;39.97;19.69
10462;BME280;5278;42.656;23.374;2022-07-21T12:53:36;94622.31;;;39.86;19.78
10462;BME280;5278;42.656;23.374;2022-07-21T12:56:05;94619.22;;;39.87;19.52
10462;BME280;5278;42.656;23.374;2022-07-21T12:58:33;94623.31;;;39.78;19.89
10462;BME280;5278;42.656;23.374;2022-07-21T13:01:00;94618.28;;;39.60;20.18
10462;BME280;5278;42.656;23.374;2022-07-21T13:03:28;94602.16;;;39.52;20.24
10462;BME280;5278;42.656;23.374;2022-07-21T13:05:57;94589.09;;;39.23;20.16
10462;BME280;5278;42.656;23.374;2022-07-21T13:08:26;94604.56;;;39.18;20.67
10462;BME280;5278;42.656;23.374;2022-07-21T13:10:53;94604.63;;;39.03;20.45